Terminal Aerodrome Forecast
Issued by NWS Atlanta, GA

Home | Current Version | Previous Version | Text Only | Print | Product List | Glossary On
Versions: 1 2 3 4 5 6 7 8 9 10 11 12 13 14 15 16 17 18 19 20 21 22 23 24 25 26 27 28 29 30 31 32 33
000
FTAK31 PAJN 271135
TAFAHN
TAF
PAHN 271135Z 2712/2812 30011KT P6SM OVC080
     FM271800 30012G22KT 2SM -SNRA BR SCT020 OVC030
     FM272200 11009G18KT 4SM -RA BR OVC015
     FM280400 10008KT 6SM -SHSNRA BR SCT015 OVC025
      AMD LTD TO CLD VIS AND WIND=

USA.gov is the U.S. government's official web portal to all federal, state and local government web resources and services.